sensor_id;sensor_type;location;lat;lon;timestamp;pressure;altitude;pressure_sealevel;temperature;humidity
46724;BME280;32463;48.298;11.620;2024-01-15T00:00:05;95029.94;;;-5.83;100.00
46724;BME280;32463;48.298;11.620;2024-01-15T00:02:32;95034.25;;;-5.85;100.00
46724;BME280;32463;48.298;11.620;2024-01-15T00:04:58;95034.75;;;-5.80;100.00
46724;BME280;32463;48.298;11.620;2024-01-15T00:07:25;95037.00;;;-5.61;100.00
46724;BME280;32463;48.298;11.620;2024-01-15T00:09:51;95039.44;;;-5.60;100.00
46724;BME280;32463;48.298;11.620;2024-01-15T00:12:18;95035.50;;;-5.37;100.00
46724;BME280;32463;48.298;11.620;2024-01-15T00:14:44;95029.91;;;-5.15;100.00
46724;BME280;32463;48.298;11.620;2024-01-15T00:17:12;95032.53;;;-4.77;100.00
46724;BME280;32463;48.298;11.620;2024-01-15T00:19:39;95030.50;;;-4.85;100.00
46724;BME280;32463;48.298;11.620;2024-01-15T00:22:05;95043.41;;;-4.62;100.00
46724;BME280;32463;48.298;11.620;2024-01-15T00:24:32;95032.50;;;-4.25;100.00
46724;BME280;32463;48.298;11.620;2024-01-15T00:26:58;95034.28;;;-3.76;100.00
46724;BME280;32463;48.298;11.620;2024-01-15T00:29:25;95046.59;;;-3.59;100.00
46724;BME280;32463;48.298;11.620;2024-01-15T00:31:51;95045.63;;;-3.32;100.00
46724;BME280;32463;48.298;11.620;2024-01-15T00:34:19;95053.34;;;-3.10;100.00
46724;BME280;32463;48.298;11.620;2024-01-15T00:36:45;95066.41;;;-2.80;100.00
46724;BME280;32463;48.298;11.620;2024-01-15T00:39:12;95057.41;;;-2.84;100.00
46724;BME280;32463;48.298;11.620;2024-01-15T00:41:38;95062.47;;;-2.84;100.00
46724;BME280;32463;48.298;11.620;2024-01-15T00:44:04;95065.72;;;-2.71;100.00
46724;BME280;32463;48.298;11.620;2024-01-15T00:46:32;95068.38;;;-2.72;100.00
46724;BME280;32463;48.298;11.620;2024-01-15T00:48:58;95065.03;;;-2.96;100.00
46724;BME280;32463;48.298;11.620;2024-01-15T00:51:25;95062.03;;;-3.01;100.00
46724;BME280;32463;48.298;11.620;2024-01-15T00:53:51;95067.06;;;-2.89;100.00
46724;BME280;32463;48.298;11.620;2024-01-15T00:56:17;95059.59;;;-3.03;100.00
46724;BME280;32463;48.298;11.620;2024-01-15T00:58:44;95056.69;;;-2.86;100.00
46724;BME280;32463;48.298;11.620;2024-01-15T01:01:10;95054.84;;;-2.84;100.00
46724;BME280;32463;48.298;11.620;2024-01-15T01:03:37;95061.75;;;-2.86;100.00
46724;BME280;32463;48.298;11.620;2024-01-15T01:06:03;95057.13;;;-2.92;100.00
46724;BME280;32463;48.298;11.620;2024-01-15T01:08:30;95053.72;;;-3.03;100.00
46724;BME280;32463;48.298;11.620;2024-01-15T01:10:56;95054.97;;;-3.09;100.00
46724;BME280;32463;48.298;11.620;2024-01-15T01:13:23;95045.66;;;-3.09;100.00
46724;BME280;32463;48.298;11.620;2024-01-15T01:15:49;95060.03;;;-2.85;100.00
46724;BME280;32463;48.298;11.620;2024-01-15T01:18:15;95050.66;;;-2.96;100.00
46724;BME280;32463;48.298;11.620;2024-01-15T01:20:43;95050.47;;;-3.06;100.00
46724;BME280;32463;48.298;11.620;2024-01-15T01:23:09;95052.09;;;-3.05;100.00
46724;BME280;32463;48.298;11.620;2024-01-15T01:25:36;95056.13;;;-3.02;100.00
46724;BME280;32463;48.298;11.620;2024-01-15T01:28:02;95050.97;;;-3.24;100.00
46724;BME280;32463;48.298;11.620;2024-01-15T01:30:29;95058.63;;;-3.13;100.00
46724;BME280;32463;48.298;11.620;2024-01-15T01:32:55;95056.34;;;-3.05;100.00
46724;BME280;32463;48.298;11.620;2024-01-15T01:35:22;95052.59;;;-3.23;100.00
46724;BME280;32463;48.298;11.620;2024-01-15T01:37:49;95056.25;;;-3.27;100.00
46724;BME280;32463;48.298;11.620;2024-01-15T01:40:15;95059.47;;;-3.25;100.00
46724;BME280;32463;48.298;11.620;2024-01-15T01:42:41;95066.47;;;-3.16;100.00
46724;BME280;32463;48.298;11.620;2024-01-15T01:45:08;95065.03;;;-3.20;100.00
46724;BME280;32463;48.298;11.620;2024-01-15T01:47:35;95070.22;;;-3.22;100.00
46724;BME280;32463;48.298;11.620;2024-01-15T01:50:02;95076.09;;;-3.21;100.00
46724;BME280;32463;48.298;11.620;2024-01-15T01:52:29;95080.63;;;-3.37;100.00
46724;BME280;32463;48.298;11.620;2024-01-15T01:54:58;95081.44;;;-3.37;100.00
46724;BME280;32463;48.298;11.620;2024-01-15T01:57:26;95083.28;;;-3.15;100.00
46724;BME280;32463;48.298;11.620;2024-01-15T01:59:53;95074.50;;;-3.35;100.00
46724;BME280;32463;48.298;11.620;2024-01-15T02:02:20;95079.66;;;-3.00;100.00
46724;BME280;32463;48.298;11.620;2024-01-15T02:04:48;95086.84;;;-3.18;100.00
46724;BME280;32463;48.298;11.620;2024-01-15T02:07:15;95076.81;;;-3.19;100.00
46724;BME280;32463;48.298;11.620;2024-01-15T02:09:44;95072.84;;;-3.23;100.00
46724;BME280;32463;48.298;11.620;2024-01-15T02:12:11;95071.25;;;-3.24;100.00
46724;BME280;32463;48.298;11.620;2024-01-15T02:14:37;95078.72;;;-3.10;100.00
46724;BME280;32463;48.298;11.620;2024-01-15T02:17:05;95079.34;;;-3.32;100.00
46724;BME280;32463;48.298;11.620;2024-01-15T02:19:32;95075.59;;;-3.26;100.00
46724;BME280;32463;48.298;11.620;2024-01-15T02:21:58;95082.00;;;-3.33;100.00
46724;BME280;32463;48.298;11.620;2024-01-15T02:24:25;95079.81;;;-3.38;100.00
46724;BME280;32463;48.298;11.620;2024-01-15T02:26:51;95080.16;;;-3.31;100.00
46724;BME280;32463;48.298;11.620;2024-01-15T02:29:18;95079.69;;;-3.36;100.00
46724;BME280;32463;48.298;11.620;2024-01-15T02:31:44;95074.13;;;-3.42;100.00
46724;BME280;32463;48.298;11.620;2024-01-15T02:34:11;95063.41;;;-3.45;100.00
46724;BME280;32463;48.298;11.620;2024-01-15T02:36:37;95066.25;;;-3.50;100.00
46724;BME280;32463;48.298;11.620;2024-01-15T02:39:03;95063.28;;;-3.44;100.00
46724;BME280;32463;48.298;11.620;2024-01-15T02:41:30;95061.59;;;-3.56;100.00
46724;BME280;32463;48.298;11.620;2024-01-15T02:43:56;95063.00;;;-3.52;100.00
46724;BME280;32463;48.298;11.620;2024-01-15T02:46:23;95064.41;;;-3.48;100.00
46724;BME280;32463;48.298;11.620;2024-01-15T02:48:49;95069.69;;;-3.51;100.00
46724;BME280;32463;48.298;11.620;2024-01-15T02:51:16;95081.25;;;-3.59;100.00
46724;BME280;32463;48.298;11.620;2024-01-15T02:53:42;95078.50;;;-3.44;100.00
46724;BME280;32463;48.298;11.620;2024-01-15T02:56:09;95083.28;;;-3.15;100.00
46724;BME280;32463;48.298;11.620;2024-01-15T02:58:36;95083.63;;;-3.32;100.00
46724;BME280;32463;48.298;11.620;2024-01-15T03:01:02;95083.97;;;-3.13;100.00
46724;BME280;32463;48.298;11.620;2024-01-15T03:03:30;95085.19;;;-3.06;100.00
46724;BME280;32463;48.298;11.620;2024-01-15T03:05:58;95098.41;;;-3.26;100.00
46724;BME280;32463;48.298;11.620;2024-01-15T03:08:24;95099.97;;;-3.36;100.00
46724;BME280;32463;48.298;11.620;2024-01-15T03:10:51;95102.28;;;-3.33;100.00
46724;BME280;32463;48.298;11.620;2024-01-15T03:13:17;95096.69;;;-3.26;100.00
46724;BME280;32463;48.298;11.620;2024-01-15T03:15:44;95094.41;;;-3.42;100.00
46724;BME280;32463;48.298;11.620;2024-01-15T03:18:10;95100.50;;;-3.44;100.00
46724;BME280;32463;48.298;11.620;2024-01-15T03:20:37;95099.06;;;-3.61;100.00
46724;BME280;32463;48.298;11.620;2024-01-15T03:23:03;95095.75;;;-3.74;100.00
46724;BME280;32463;48.298;11.620;2024-01-15T03:25:30;95099.50;;;-3.67;100.00
46724;BME280;32463;48.298;11.620;2024-01-15T03:27:58;95097.47;;;-3.87;100.00
46724;BME280;32463;48.298;11.620;2024-01-15T03:30:24;95102.34;;;-3.84;100.00
46724;BME280;32463;48.298;11.620;2024-01-15T03:32:51;95088.75;;;-3.96;100.00
46724;BME280;32463;48.298;11.620;2024-01-15T03:35:17;95086.66;;;-3.89;100.00
46724;BME280;32463;48.298;11.620;2024-01-15T03:37:44;95085.03;;;-3.90;100.00
46724;BME280;32463;48.298;11.620;2024-01-15T03:40:10;95076.91;;;-3.95;100.00
46724;BME280;32463;48.298;11.620;2024-01-15T03:42:37;95085.31;;;-3.95;100.00
46724;BME280;32463;48.298;11.620;2024-01-15T03:45:04;95076.81;;;-3.94;100.00
46724;BME280;32463;48.298;11.620;2024-01-15T03:47:31;95065.59;;;-3.90;100.00
46724;BME280;32463;48.298;11.620;2024-01-15T03:49:57;95067.72;;;-3.96;100.00
46724;BME280;32463;48.298;11.620;2024-01-15T03:52:24;95069.75;;;-4.01;100.00
46724;BME280;32463;48.298;11.620;2024-01-15T03:54:50;95069.97;;;-4.04;100.00
46724;BME280;32463;48.298;11.620;2024-01-15T03:57:16;95063.69;;;-3.99;100.00
46724;BME280;32463;48.298;11.620;2024-01-15T03:59:43;95077.94;;;-3.85;100.00
46724;BME280;32463;48.298;11.620;2024-01-15T04:02:12;95073.69;;;-3.97;100.00
46724;BME280;32463;48.298;11.620;2024-01-15T04:04:42;95076.44;;;-4.00;100.00
46724;BME280;32463;48.298;11.620;2024-01-15T04:07:09;95079.88;;;-4.01;100.00
46724;BME280;32463;48.298;11.620;2024-01-15T04:09:37;95084.75;;;-3.98;100.00
46724;BME280;32463;48.298;11.620;2024-01-15T04:12:04;95072.78;;;-4.09;100.00
46724;BME280;32463;48.298;11.620;2024-01-15T04:14:31;95071.56;;;-4.03;100.00
46724;BME280;32463;48.298;11.620;2024-01-15T04:16:57;95080.59;;;-3.99;100.00
46724;BME280;32463;48.298;11.620;2024-01-15T04:19:24;95075.84;;;-4.04;100.00
46724;BME280;32463;48.298;11.620;2024-01-15T04:21:50;95066.31;;;-4.00;100.00
46724;BME280;32463;48.298;11.620;2024-01-15T04:24:16;95065.47;;;-3.88;100.00
46724;BME280;32463;48.298;11.620;2024-01-15T04:26:44;95061.84;;;-3.84;100.00
46724;BME280;32463;48.298;11.620;2024-01-15T04:29:11;95058.41;;;-3.83;100.00
46724;BME280;32463;48.298;11.620;2024-01-15T04:31:37;95045.03;;;-3.72;100.00
46724;BME280;32463;48.298;11.620;2024-01-15T04:34:04;95054.50;;;-3.63;100.00
46724;BME280;32463;48.298;11.620;2024-01-15T04:36:30;95044.34;;;-3.51;100.00
46724;BME280;32463;48.298;11.620;2024-01-15T04:38:57;95050.84;;;-3.47;100.00
46724;BME280;32463;48.298;11.620;2024-01-15T04:41:23;95046.38;;;-3.43;100.00
46724;BME280;32463;48.298;11.620;2024-01-15T04:43:50;95048.00;;;-3.42;100.00
46724;BME280;32463;48.298;11.620;2024-01-15T04:46:16;95055.31;;;-3.50;100.00
46724;BME280;32463;48.298;11.620;2024-01-15T04:48:43;95051.34;;;-3.54;100.00
46724;BME280;32463;48.298;11.620;2024-01-15T04:51:09;95045.97;;;-3.50;100.00
46724;BME280;32463;48.298;11.620;2024-01-15T04:53:36;95055.31;;;-3.50;100.00
46724;BME280;32463;48.298;11.620;2024-01-15T04:56:03;95067.59;;;-3.33;100.00
46724;BME280;32463;48.298;11.620;2024-01-15T04:58:30;95070.91;;;-3.44;100.00
46724;BME280;32463;48.298;11.620;2024-01-15T05:00:57;95066.63;;;-3.43;100.00
46724;BME280;32463;48.298;11.620;2024-01-15T05:03:25;95064.72;;;-3.40;100.00
46724;BME280;32463;48.298;11.620;2024-01-15T05:05:51;95060.34;;;-3.37;100.00
46724;BME280;32463;48.298;11.620;2024-01-15T05:08:18;95053.00;;;-3.29;100.00
46724;BME280;32463;48.298;11.620;2024-01-15T05:10:44;95051.19;;;-3.27;100.00
46724;BME280;32463;48.298;11.620;2024-01-15T05:13:11;95050.69;;;-3.32;100.00
46724;BME280;32463;48.298;11.620;2024-01-15T05:15:37;95053.00;;;-3.29;100.00
46724;BME280;32463;48.298;11.620;2024-01-15T05:18:04;95052.59;;;-3.23;100.00
46724;BME280;32463;48.298;11.620;2024-01-15T05:20:31;95053.50;;;-3.24;100.00
46724;BME280;32463;48.298;11.620;2024-01-15T05:22:57;95043.16;;;-3.21;100.00
46724;BME280;32463;48.298;11.620;2024-01-15T05:25:24;95044.97;;;-3.23;100.00
46724;BME280;32463;48.298;11.620;2024-01-15T05:27:50;95037.88;;;-3.18;100.00
46724;BME280;32463;48.298;11.620;2024-01-15T05:30:17;95046.66;;;-3.11;100.00
46724;BME280;32463;48.298;11.620;2024-01-15T05:32:43;95046.00;;;-3.02;100.00
46724;BME280;32463;48.298;11.620;2024-01-15T05:35:10;95043.94;;;-3.08;100.00
46724;BME280;32463;48.298;11.620;2024-01-15T05:37:36;95029.97;;;-3.02;100.00
46724;BME280;32463;48.298;11.620;2024-01-15T05:40:03;95037.06;;;-2.95;100.00
46724;BME280;32463;48.298;11.620;2024-01-15T05:42:30;95034.41;;;-2.93;100.00
46724;BME280;32463;48.298;11.620;2024-01-15T05:44:57;95047.47;;;-2.87;100.00
46724;BME280;32463;48.298;11.620;2024-01-15T05:47:24;95053.25;;;-2.85;100.00
46724;BME280;32463;48.298;11.620;2024-01-15T05:49:51;95047.75;;;-2.79;100.00
46724;BME280;32463;48.298;11.620;2024-01-15T05:52:17;95045.19;;;-2.79;100.00
46724;BME280;32463;48.298;11.620;2024-01-15T05:54:43;95035.38;;;-2.83;100.00
46724;BME280;32463;48.298;11.620;2024-01-15T05:57:10;95031.63;;;-2.66;100.00
46724;BME280;32463;48.298;11.620;2024-01-15T05:59:36;95036.41;;;-2.51;100.00
46724;BME280;32463;48.298;11.620;2024-01-15T06:02:03;95027.94;;;-2.62;100.00
46724;BME280;32463;48.298;11.620;2024-01-15T06:04:29;95031.19;;;-2.60;100.00
46724;BME280;32463;48.298;11.620;2024-01-15T06:06:56;95034.78;;;-2.52;100.00
46724;BME280;32463;48.298;11.620;2024-01-15T06:09:22;95027.50;;;-2.56;100.00
46724;BME280;32463;48.298;11.620;2024-01-15T06:11:49;95039.72;;;-2.61;100.00
46724;BME280;32463;48.298;11.620;2024-01-15T06:14:15;95027.72;;;-2.59;100.00
46724;BME280;32463;48.298;11.620;2024-01-15T06:16:42;95041.34;;;-2.60;100.00
46724;BME280;32463;48.298;11.620;2024-01-15T06:19:08;95037.22;;;-2.50;100.00
46724;BME280;32463;48.298;11.620;2024-01-15T06:21:35;95035.06;;;-2.32;100.00
46724;BME280;32463;48.298;11.620;2024-01-15T06:24:01;95028.94;;;-2.30;100.00
46724;BME280;32463;48.298;11.620;2024-01-15T06:26:28;95030.78;;;-2.32;100.00
46724;BME280;32463;48.298;11.620;2024-01-15T06:28:54;95024.66;;;-2.41;100.00
46724;BME280;32463;48.298;11.620;2024-01-15T06:31:21;95035.88;;;-2.32;100.00
46724;BME280;32463;48.298;11.620;2024-01-15T06:33:47;95025.72;;;-2.32;100.00
46724;BME280;32463;48.298;11.620;2024-01-15T06:36:14;95028.25;;;-2.32;100.00
46724;BME280;32463;48.298;11.620;2024-01-15T06:38:42;95034.47;;;-2.36;100.00
46724;BME280;32463;48.298;11.620;2024-01-15T06:41:09;95028.28;;;-2.21;100.00
46724;BME280;32463;48.298;11.620;2024-01-15T06:43:35;95036.47;;;-2.28;100.00
46724;BME280;32463;48.298;11.620;2024-01-15T06:46:02;95029.91;;;-2.20;100.00
46724;BME280;32463;48.298;11.620;2024-01-15T06:48:28;95032.78;;;-2.13;100.00
46724;BME280;32463;48.298;11.620;2024-01-15T06:50:55;95029.09;;;-2.20;100.00
46724;BME280;32463;48.298;11.620;2024-01-15T06:53:22;95038.66;;;-2.24;100.00
46724;BME280;32463;48.298;11.620;2024-01-15T06:55:48;95050.66;;;-2.26;100.00
46724;BME280;32463;48.298;11.620;2024-01-15T06:58:16;95042.25;;;-2.15;100.00
46724;BME280;32463;48.298;11.620;2024-01-15T07:00:43;95046.53;;;-2.16;100.00
46724;BME280;32463;48.298;11.620;2024-01-15T07:03:09;95052.97;;;-2.12;100.00
46724;BME280;32463;48.298;11.620;2024-01-15T07:05:36;95054.25;;;-2.06;100.00
46724;BME280;32463;48.298;11.620;2024-01-15T07:08:03;95044.78;;;-2.15;100.00
46724;BME280;32463;48.298;11.620;2024-01-15T07:10:29;95058.53;;;-2.18;100.00
46724;BME280;32463;48.298;11.620;2024-01-15T07:12:56;95036.38;;;-2.16;100.00
46724;BME280;32463;48.298;11.620;2024-01-15T07:15:22;95044.22;;;-2.08;100.00
46724;BME280;32463;48.298;11.620;2024-01-15T07:17:49;95042.59;;;-2.09;100.00
46724;BME280;32463;48.298;11.620;2024-01-15T07:20:15;95024.25;;;-2.01;100.00
46724;BME280;32463;48.298;11.620;2024-01-15T07:22:44;95023.22;;;-1.98;100.00
46724;BME280;32463;48.298;11.620;2024-01-15T07:25:11;95007.31;;;-1.89;100.00
46724;BME280;32463;48.298;11.620;2024-01-15T07:27:38;95013.50;;;-1.82;100.00
46724;BME280;32463;48.298;11.620;2024-01-15T07:30:04;95017.91;;;-1.95;100.00
46724;BME280;32463;48.298;11.620;2024-01-15T07:32:32;95014.69;;;-1.97;100.00
46724;BME280;32463;48.298;11.620;2024-01-15T07:34:59;95021.16;;;-1.93;100.00
46724;BME280;32463;48.298;11.620;2024-01-15T07:37:25;95024.84;;;-1.97;100.00
46724;BME280;32463;48.298;11.620;2024-01-15T07:39:52;95038.47;;;-1.98;100.00
46724;BME280;32463;48.298;11.620;2024-01-15T07:42:18;95031.31;;;-1.93;100.00
46724;BME280;32463;48.298;11.620;2024-01-15T07:44:45;95031.09;;;-1.90;100.00
46724;BME280;32463;48.298;11.620;2024-01-15T07:47:12;95023.81;;;-1.95;100.00
46724;BME280;32463;48.298;11.620;2024-01-15T07:49:38;95022.88;;;-1.94;100.00
46724;BME280;32463;48.298;11.620;2024-01-15T07:52:05;95027.63;;;-1.89;100.00
46724;BME280;32463;48.298;11.620;2024-01-15T07:54:32;95035.72;;;-1.84;100.00
46724;BME280;32463;48.298;11.620;2024-01-15T07:57:00;95026.91;;;-1.80;100.00
46724;BME280;32463;48.298;11.620;2024-01-15T07:59:27;95022.06;;;-1.83;100.00
46724;BME280;32463;48.298;11.620;2024-01-15T08:01:54;95036.84;;;-1.77;100.00
46724;BME280;32463;48.298;11.620;2024-01-15T08:04:20;95025.53;;;-1.84;100.00
46724;BME280;32463;48.298;11.620;2024-01-15T08:06:47;95028.53;;;-1.68;100.00
46724;BME280;32463;48.298;11.620;2024-01-15T08:09:14;95012.69;;;-1.83;100.00
46724;BME280;32463;48.298;11.620;2024-01-15T08:11:40;95012.16;;;-1.86;100.00
46724;BME280;32463;48.298;11.620;2024-01-15T08:14:08;95009.81;;;-1.78;100.00
46724;BME280;32463;48.298;11.620;2024-01-15T08:16:34;95011.19;;;-1.74;100.00
46724;BME280;32463;48.298;11.620;2024-01-15T08:19:01;95012.34;;;-1.78;100.00
46724;BME280;32463;48.298;11.620;2024-01-15T08:21:27;95011.44;;;-1.77;100.00
46724;BME280;32463;48.298;11.620;2024-01-15T08:23:56;95016.28;;;-1.74;100.00
46724;BME280;32463;48.298;11.620;2024-01-15T08:26:23;95017.91;;;-1.62;100.00
46724;BME280;32463;48.298;11.620;2024-01-15T08:28:49;94998.28;;;-1.60;100.00
46724;BME280;32463;48.298;11.620;2024-01-15T08:31:16;94995.13;;;-1.52;100.00
46724;BME280;32463;48.298;11.620;2024-01-15T08:33:42;94995.47;;;-1.46;100.00
46724;BME280;32463;48.298;11.620;2024-01-15T08:36:09;95001.22;;;-1.44;100.00
46724;BME280;32463;48.298;11.620;2024-01-15T08:38:36;94988.75;;;-1.47;100.00
46724;BME280;32463;48.298;11.620;2024-01-15T08:41:02;95004.25;;;-1.50;100.00
46724;BME280;32463;48.298;11.620;2024-01-15T08:43:29;95005.28;;;-1.52;100.00
46724;BME280;32463;48.298;11.620;2024-01-15T08:45:56;94989.44;;;-1.45;100.00
46724;BME280;32463;48.298;11.620;2024-01-15T08:48:23;94976.50;;;-1.42;100.00
46724;BME280;32463;48.298;11.620;2024-01-15T08:50:52;94993.47;;;-1.31;100.00
46724;BME280;32463;48.298;11.620;2024-01-15T08:53:19;94989.66;;;-1.37;100.00
46724;BME280;32463;48.298;11.620;2024-01-15T08:55:46;94997.75;;;-1.31;100.00
46724;BME280;32463;48.298;11.620;2024-01-15T08:58:13;95004.66;;;-1.22;100.00
46724;BME280;32463;48.298;11.620;2024-01-15T09:00:39;95001.75;;;-1.18;100.00
46724;BME280;32463;48.298;11.620;2024-01-15T09:03:06;95003.56;;;-1.09;100.00
46724;BME280;32463;48.298;11.620;2024-01-15T09:05:34;94983.56;;;-1.02;100.00
46724;BME280;32463;48.298;11.620;2024-01-15T09:08:01;94985.38;;;-0.93;100.00
46724;BME280;32463;48.298;11.620;2024-01-15T09:10:27;95000.59;;;-0.82;100.00
46724;BME280;32463;48.298;11.620;2024-01-15T09:12:54;95002.53;;;-0.74;100.00
46724;BME280;32463;48.298;11.620;2024-01-15T09:15:20;95005.75;;;-0.72;100.00
46724;BME280;32463;48.298;11.620;2024-01-15T09:17:47;94997.59;;;-0.87;100.00
46724;BME280;32463;48.298;11.620;2024-01-15T09:20:14;95000.66;;;-0.93;100.00
46724;BME280;32463;48.298;11.620;2024-01-15T09:22:40;95018.94;;;-0.99;100.00
46724;BME280;32463;48.298;11.620;2024-01-15T09:25:07;95009.44;;;-0.97;100.00
46724;BME280;32463;48.298;11.620;2024-01-15T09:27:35;95007.94;;;-0.99;100.00
46724;BME280;32463;48.298;11.620;2024-01-15T09:30:02;95014.22;;;-0.83;100.00
46724;BME280;32463;48.298;11.620;2024-01-15T09:32:30;95013.91;;;-0.89;100.00
46724;BME280;32463;48.298;11.620;2024-01-15T09:34:58;95023.38;;;-0.91;100.00
46724;BME280;32463;48.298;11.620;2024-01-15T09:37:24;95021.91;;;-0.94;100.00
46724;BME280;32463;48.298;11.620;2024-01-15T09:39:51;95010.59;;;-1.01;100.00
46724;BME280;32463;48.298;11.620;2024-01-15T09:42:18;95009.56;;;-0.98;100.00
46724;BME280;32463;48.298;11.620;2024-01-15T09:44:46;95004.16;;;-0.84;100.00
46724;BME280;32463;48.298;11.620;2024-01-15T09:47:12;95007.34;;;-0.92;100.00
46724;BME280;32463;48.298;11.620;2024-01-15T09:49:40;95004.53;;;-0.89;100.00
46724;BME280;32463;48.298;11.620;2024-01-15T09:52:07;95008.09;;;-0.80;100.00
46724;BME280;32463;48.298;11.620;2024-01-15T09:54:34;94996.31;;;-0.81;100.00
46724;BME280;32463;48.298;11.620;2024-01-15T09:57:00;95009.19;;;-0.62;100.00
46724;BME280;32463;48.298;11.620;2024-01-15T09:59:28;95017.66;;;-0.73;100.00
46724;BME280;32463;48.298;11.620;2024-01-15T10:01:55;95014.41;;;-0.63;100.00
46724;BME280;32463;48.298;11.620;2024-01-15T10:04:23;95010.13;;;-0.63;100.00
46724;BME280;32463;48.298;11.620;2024-01-15T10:06:51;94997.06;;;-0.49;100.00
46724;BME280;32463;48.298;11.620;2024-01-15T10:09:18;94981.47;;;-0.55;100.00
46724;BME280;32463;48.298;11.620;2024-01-15T10:11:45;94998.47;;;-0.77;100.00
46724;BME280;32463;48.298;11.620;2024-01-15T10:14:12;94986.78;;;-0.68;100.00
46724;BME280;32463;48.298;11.620;2024-01-15T10:16:42;94983.09;;;-0.54;100.00
46724;BME280;32463;48.298;11.620;2024-01-15T10:19:09;94951.19;;;-0.58;100.00
46724;BME280;32463;48.298;11.620;2024-01-15T10:21:35;94970.69;;;-0.48;100.00
46724;BME280;32463;48.298;11.620;2024-01-15T10:24:03;94961.13;;;-0.55;100.00
46724;BME280;32463;48.298;11.620;2024-01-15T10:26:30;94962.72;;;-0.54;100.00
46724;BME280;32463;48.298;11.620;2024-01-15T10:28:58;94952.66;;;-0.56;100.00
46724;BME280;32463;48.298;11.620;2024-01-15T10:31:26;94955.91;;;-0.33;100.00
46724;BME280;32463;48.298;11.620;2024-01-15T10:33:53;94940.31;;;-0.40;100.00
46724;BME280;32463;48.298;11.620;2024-01-15T10:36:20;94936.97;;;-0.40;100.00
46724;BME280;32463;48.298;11.620;2024-01-15T10:38:46;94940.41;;;-0.20;100.00
46724;BME280;32463;48.298;11.620;2024-01-15T10:41:13;94951.41;;;-0.20;100.00
46724;BME280;32463;48.298;11.620;2024-01-15T10:43:39;94946.03;;;-0.17;100.00
46724;BME280;32463;48.298;11.620;2024-01-15T10:46:06;94931.03;;;-0.20;100.00
46724;BME280;32463;48.298;11.620;2024-01-15T10:48:33;94933.13;;;0.75;100.00
46724;BME280;32463;48.298;11.620;2024-01-15T10:51:01;94927.81;;;2.00;100.00
46724;BME280;32463;48.298;11.620;2024-01-15T10:53:35;94928.56;;;2.65;99.52
46724;BME280;32463;48.298;11.620;2024-01-15T10:56:04;94931.69;;;2.59;97.72
46724;BME280;32463;48.298;11.620;2024-01-15T10:58:33;94943.38;;;3.50;93.81
46724;BME280;32463;48.298;11.620;2024-01-15T11:01:00;94942.41;;;2.90;91.05
46724;BME280;32463;48.298;11.620;2024-01-15T11:03:27;94942.09;;;3.28;89.85
46724;BME280;32463;48.298;11.620;2024-01-15T11:05:54;94937.84;;;2.84;89.63
46724;BME280;32463;48.298;11.620;2024-01-15T11:08:20;94934.97;;;3.40;87.73
46724;BME280;32463;48.298;11.620;2024-01-15T11:10:48;94931.97;;;3.45;87.19
46724;BME280;32463;48.298;11.620;2024-01-15T11:13:20;94924.59;;;3.93;84.09
46724;BME280;32463;48.298;11.620;2024-01-15T11:16:07;94917.38;;;3.45;83.58
46724;BME280;32463;48.298;11.620;2024-01-15T11:19:21;94902.75;;;2.94;85.93
46724;BME280;32463;48.298;11.620;2024-01-15T11:21:23;94908.44;;;2.52;91.69
46724;BME280;32463;48.298;11.620;2024-01-15T11:29:10;94920.06;;;3.87;82.02
46724;BME280;32463;48.298;11.620;2024-01-15T11:34:10;94923.13;;;4.33;79.05
46724;BME280;32463;48.298;11.620;2024-01-15T11:41:54;94913.91;;;4.48;74.30
46724;BME280;32463;48.298;11.620;2024-01-15T11:44:21;94917.44;;;3.27;79.90
46724;BME280;32463;48.298;11.620;2024-01-15T11:46:57;94915.19;;;3.76;79.62
46724;BME280;32463;48.298;11.620;2024-01-15T11:52:22;94907.75;;;3.91;76.93
46724;BME280;32463;48.298;11.620;2024-01-15T11:57:33;94901.28;;;4.79;71.58
46724;BME280;32463;48.298;11.620;2024-01-15T12:00:05;94890.81;;;5.78;67.91
46724;BME280;32463;48.298;11.620;2024-01-15T12:02:32;94881.09;;;5.49;67.95
46724;BME280;32463;48.298;11.620;2024-01-15T12:04:59;94887.88;;;6.05;68.50
46724;BME280;32463;48.298;11.620;2024-01-15T12:07:25;94892.50;;;5.06;70.25
46724;BME280;32463;48.298;11.620;2024-01-15T12:09:52;94892.47;;;4.98;70.61
46724;BME280;32463;48.298;11.620;2024-01-15T12:15:00;94876.53;;;4.03;69.24
46724;BME280;32463;48.298;11.620;2024-01-15T12:17:26;94872.16;;;3.10;76.75
46724;BME280;32463;48.298;11.620;2024-01-15T12:19:53;94874.09;;;2.37;84.22
46724;BME280;32463;48.298;11.620;2024-01-15T12:22:21;94856.28;;;2.00;90.01
46724;BME280;32463;48.298;11.620;2024-01-15T12:24:47;94845.94;;;1.64;92.81
46724;BME280;32463;48.298;11.620;2024-01-15T12:27:14;94850.72;;;2.05;93.22
46724;BME280;32463;48.298;11.620;2024-01-15T12:29:40;94842.94;;;2.95;88.59
46724;BME280;32463;48.298;11.620;2024-01-15T12:32:07;94869.00;;;4.60;81.63
46724;BME280;32463;48.298;11.620;2024-01-15T12:34:33;94863.91;;;5.25;73.34
46724;BME280;32463;48.298;11.620;2024-01-15T12:37:00;94849.22;;;6.75;65.18
46724;BME280;32463;48.298;11.620;2024-01-15T12:39:27;94846.09;;;5.95;63.50
46724;BME280;32463;48.298;11.620;2024-01-15T12:41:53;94852.78;;;6.13;64.31
46724;BME280;32463;48.298;11.620;2024-01-15T12:44:19;94853.59;;;4.60;68.54
46724;BME280;32463;48.298;11.620;2024-01-15T12:46:47;94848.09;;;3.81;73.13
46724;BME280;32463;48.298;11.620;2024-01-15T12:49:14;94854.19;;;2.84;79.85
46724;BME280;32463;48.298;11.620;2024-01-15T12:51:40;94858.22;;;2.87;84.72
46724;BME280;32463;48.298;11.620;2024-01-15T12:54:07;94855.91;;;2.40;85.92
46724;BME280;32463;48.298;11.620;2024-01-15T12:56:33;94851.41;;;2.07;87.13
46724;BME280;32463;48.298;11.620;2024-01-15T12:59:00;94854.09;;;2.05;91.81
46724;BME280;32463;48.298;11.620;2024-01-15T13:01:26;94858.75;;;2.37;92.15